Time;durP1;ratioP1;P1;durP2;ratioP2;P2;SDS_P1;SDS_P2;PMS_P1;PMS_P2;Temp;Humidity;BMP_temperature;BMP_pressure;BME280_temperature;BME280_humidity;BME280_pressure;Samples;Min_cycle;Max_cycle;Signal;HPM_P1;HPM_P2
2023/05/05 00:00:00;;;;;;;3.65;2.90;;;;;;;;;;488641;28;1091;-74
2023/05/05 00:00:16;;;;;;;3.67;3.27;;;;;;;;;;487356;28;1316;-74
2023/05/05 00:00:31;;;;;;;3.47;3.17;;;;;;;;;;485429;28;1188;-74
2023/05/05 00:00:48;;;;;;;3.17;2.87;;;;;;;;;;484996;28;1291;-74
2023/05/05 00:01:06;;;;;;;3.33;3.00;;;;;;;;;;484385;28;1386;-74
2023/05/05 00:01:31;;;;;;;4.28;3.30;;;;;;;;;;482754;28;1149;-74
2023/05/05 00:01:47;;;;;;;3.90;3.50;;;;;;;;;;484864;28;1272;-74
2023/05/05 00:02:02;;;;;;;3.70;3.40;;;;;;;;;;482795;28;1407;-74
2023/05/05 00:02:18;;;;;;;3.70;3.40;;;;;;;;;;483857;28;1179;-74
2023/05/05 00:02:34;;;;;;;4.30;3.40;;;;;;;;;;484192;28;1205;-74
2023/05/05 00:02:49;;;;;;;4.43;3.37;;;;;;;;;;480824;28;1244;-74
2023/05/05 00:03:04;;;;;;;3.90;3.40;;;;;;;;;;485772;28;1066;-74
2023/05/05 00:03:26;;;;;;;4.30;3.50;;;;;;;;;;483528;28;1034;-74
2023/05/05 00:04:11;;;;;;;4.40;3.50;;;;;;;;;;486577;28;1332;-74
2023/05/05 00:04:26;;;;;;;4.00;3.60;;;;;;;;;;478385;28;2007;-74
2023/05/05 00:04:42;;;;;;;4.10;3.63;;;;;;;;;;477150;28;1119;-73
2023/05/05 00:04:57;;;;;;;4.40;3.70;;;;;;;;;;484888;28;1218;-74
2023/05/05 00:05:13;;;;;;;3.87;3.50;;;;;;;;;;482449;28;1192;-75
2023/05/05 00:05:29;;;;;;;3.63;3.30;;;;;;;;;;483503;28;1140;-74
2023/05/05 00:05:46;;;;;;;3.40;3.10;;;;;;;;;;485848;28;1175;-74
2023/05/05 00:06:11;;;;;;;3.75;3.35;;;;;;;;;;483629;28;1369;-74
2023/05/05 00:06:27;;;;;;;4.60;3.67;;;;;;;;;;486607;28;1121;-74
2023/05/05 00:06:43;;;;;;;3.97;3.58;;;;;;;;;;482341;28;1133;-74
2023/05/05 00:06:58;;;;;;;4.60;3.70;;;;;;;;;;482392;28;1323;-74
2023/05/05 00:07:13;;;;;;;5.35;3.65;;;;;;;;;;483959;28;1292;-74
2023/05/05 00:07:38;;;;;;;5.47;3.63;;;;;;;;;;484868;28;1307;-74
2023/05/05 00:07:53;;;;;;;5.32;3.70;;;;;;;;;;485325;28;1058;-74
2023/05/05 00:08:08;;;;;;;5.13;3.93;;;;;;;;;;485914;28;1100;-74
2023/05/05 00:08:27;;;;;;;4.57;3.90;;;;;;;;;;484868;28;1018;-74
2023/05/05 00:08:43;;;;;;;5.45;3.95;;;;;;;;;;488931;28;1213;-74
2023/05/05 00:08:58;;;;;;;5.10;3.95;;;;;;;;;;483683;28;1166;-74
2023/05/05 00:09:14;;;;;;;4.77;3.90;;;;;;;;;;483527;28;1221;-74
2023/05/05 00:09:54;;;;;;;6.85;4.22;;;;;;;;;;485098;28;1075;-74
2023/05/05 00:10:08;;;;;;;5.22;4.30;;;;;;;;;;486880;28;1292;-74
2023/05/05 00:10:27;;;;;;;7.33;4.20;;;;;;;;;;483786;28;1173;-76
2023/05/05 00:10:56;;;;;;;7.20;4.00;;;;;;;;;;484391;28;1209;-74
2023/05/05 00:11:11;;;;;;;5.32;4.03;;;;;;;;;;488677;28;1115;-74
2023/05/05 00:11:27;;;;;;;7.20;4.20;;;;;;;;;;485003;28;1182;-73
2023/05/05 00:11:45;;;;;;;6.30;4.45;;;;;;;;;;486664;28;1199;-74
2023/05/05 00:12:01;;;;;;;5.63;4.40;;;;;;;;;;482242;28;1186;-75
2023/05/05 00:12:17;;;;;;;6.32;4.70;;;;;;;;;;483118;28;1174;-74
2023/05/05 00:12:35;;;;;;;5.47;4.90;;;;;;;;;;482838;28;1141;-74
2023/05/05 00:12:51;;;;;;;5.20;4.63;;;;;;;;;;485031;28;1287;-74
2023/05/05 00:13:06;;;;;;;6.07;4.95;;;;;;;;;;485677;28;1048;-74
2023/05/05 00:13:22;;;;;;;6.60;4.97;;;;;;;;;;483419;28;1280;-73
2023/05/05 00:13:38;;;;;;;6.35;4.80;;;;;;;;;;483482;28;1193;-74
2023/05/05 00:13:53;;;;;;;5.68;5.05;;;;;;;;;;490585;28;1027;-73
2023/05/05 00:14:14;;;;;;;6.07;5.20;;;;;;;;;;486777;28;1056;-74
2023/05/05 00:14:52;;;;;;;7.45;5.45;;;;;;;;;;485093;28;1254;-74
2023/05/05 00:15:08;;;;;;;5.78;5.20;;;;;;;;;;489353;28;1267;-74
2023/05/05 00:15:23;;;;;;;5.70;5.20;;;;;;;;;;482939;28;1270;-74
2023/05/05 00:15:40;;;;;;;5.50;5.00;;;;;;;;;;483085;28;1303;-73
2023/05/05 00:15:59;;;;;;;5.40;4.88;;;;;;;;;;481510;28;1129;-74
2023/05/05 00:16:17;;;;;;;5.30;4.80;;;;;;;;;;486513;28;1293;-74
2023/05/05 00:16:32;;;;;;;5.60;5.10;;;;;;;;;;487468;28;1212;-74
2023/05/05 00:16:51;;;;;;;6.30;5.40;;;;;;;;;;485239;28;1315;-73
2023/05/05 00:17:14;;;;;;;6.53;5.38;;;;;;;;;;485189;28;1209;-74
2023/05/05 00:17:29;;;;;;;5.82;5.22;;;;;;;;;;482660;28;1118;-73
2023/05/05 00:17:47;;;;;;;6.07;5.47;;;;;;;;;;487094;28;1320;-74
2023/05/05 00:18:13;;;;;;;7.35;6.18;;;;;;;;;;481702;28;1108;-75
2023/05/05 00:18:29;;;;;;;8.25;5.97;;;;;;;;;;483655;28;1651;-74
2023/05/05 00:19:13;;;;;;;8.02;6.22;;;;;;;;;;482836;28;1343;-74
2023/05/05 00:19:52;;;;;;;10.00;7.63;;;;;;;;;;475827;28;1345;-74
2023/05/05 00:20:08;;;;;;;10.07;7.95;;;;;;;;;;475282;28;1403;-74
2023/05/05 00:20:24;;;;;;;10.55;7.72;;;;;;;;;;482135;28;1189;-74
2023/05/05 00:20:39;;;;;;;9.35;7.78;;;;;;;;;;486282;28;1197;-74
2023/05/05 00:20:55;;;;;;;8.77;7.87;;;;;;;;;;483515;28;1296;-74
2023/05/05 00:21:26;;;;;;;9.73;7.75;;;;;;;;;;483750;28;1103;-75
2023/05/05 00:22:40;;;;;;;13.73;10.40;;;;;;;;;;486646;28;1081;-74
2023/05/05 00:22:44;;;;;;;10.20;8.00;;;;;;;;;;483519;28;1819;-74
2023/05/05 00:22:56;;;;;;;14.67;10.83;;;;;;;;;;485088;28;1519;-74
2023/05/05 00:23:12;;;;;;;13.60;11.23;;;;;;;;;;486415;28;1176;-74
2023/05/05 00:23:28;;;;;;;14.05;10.73;;;;;;;;;;483382;28;1187;-74
2023/05/05 00:23:43;;;;;;;15.32;10.00;;;;;;;;;;484816;28;1071;-74
2023/05/05 00:23:59;;;;;;;12.80;9.60;;;;;;;;;;484213;28;1379;-74
2023/05/05 00:24:20;;;;;;;11.40;9.10;;;;;;;;;;484985;28;1168;-74
2023/05/05 00:24:36;;;;;;;12.00;9.77;;;;;;;;;;487587;28;1938;-74
2023/05/05 00:24:54;;;;;;;11.82;9.95;;;;;;;;;;483803;28;1125;-74
2023/05/05 00:25:10;;;;;;;13.27;10.18;;;;;;;;;;484608;28;1109;-74
2023/05/05 00:25:26;;;;;;;13.20;10.48;;;;;;;;;;485222;28;1125;-74
2023/05/05 00:25:41;;;;;;;13.48;10.55;;;;;;;;;;484370;28;1225;-74
2023/05/05 00:25:57;;;;;;;15.93;10.87;;;;;;;;;;490259;28;1313;-74
2023/05/05 00:26:12;;;;;;;15.60;11.00;;;;;;;;;;489025;28;1306;-75
2023/05/05 00:26:37;;;;;;;12.93;10.50;;;;;;;;;;490514;28;1299;-74
2023/05/05 00:26:52;;;;;;;13.88;10.85;;;;;;;;;;489037;28;1247;-73
2023/05/05 00:27:15;;;;;;;14.20;10.63;;;;;;;;;;489100;28;1150;-73
2023/05/05 00:27:31;;;;;;;12.70;10.02;;;;;;;;;;487304;28;1264;-74
2023/05/05 00:27:46;;;;;;;12.88;10.43;;;;;;;;;;484860;28;1139;-75
2023/05/05 00:28:02;;;;;;;13.83;10.70;;;;;;;;;;484954;28;1159;-74
2023/05/05 00:28:20;;;;;;;14.20;10.80;;;;;;;;;;484575;28;1211;-74
2023/05/05 00:28:56;;;;;;;12.70;10.40;;;;;;;;;;484280;28;1172;-74
2023/05/05 00:29:15;;;;;;;11.13;9.50;;;;;;;;;;483352;28;1457;-74
2023/05/05 00:29:55;;;;;;;10.85;9.43;;;;;;;;;;487116;28;1125;-74
2023/05/05 00:30:09;;;;;;;12.68;9.55;;;;;;;;;;486866;28;1386;-74
2023/05/05 00:30:26;;;;;;;13.32;9.52;;;;;;;;;;483985;28;1272;-74
2023/05/05 00:30:41;;;;;;;12.55;9.32;;;;;;;;;;487127;28;1188;-74
2023/05/05 00:30:57;;;;;;;10.75;9.13;;;;;;;;;;489670;28;1276;-74
2023/05/05 00:31:33;;;;;;;10.03;9.03;;;;;;;;;;483005;28;1272;-74
2023/05/05 00:31:51;;;;;;;10.98;9.15;;;;;;;;;;479799;28;1786;-74
2023/05/05 00:32:07;;;;;;;9.85;8.55;;;;;;;;;;481310;28;1678;-74
2023/05/05 00:32:35;;;;;;;10.55;8.77;;;;;;;;;;486998;28;1302;-74
2023/05/05 00:32:51;;;;;;;9.30;8.27;;;;;;;;;;485631;28;1124;-74
2023/05/05 00:33:06;;;;;;;9.80;7.97;;;;;;;;;;489052;28;1273;-74
2023/05/05 00:33:22;;;;;;;9.48;7.75;;;;;;;;;;488747;28;1206;-74
2023/05/05 00:33:41;;;;;;;8.57;7.70;;;;;;;;;;481559;28;1142;-74
2023/05/05 00:34:02;;;;;;;9.77;8.00;;;;;;;;;;481790;28;1314;-74
2023/05/05 00:34:17;;;;;;;9.85;7.97;;;;;;;;;;486810;28;1490;-73
2023/05/05 00:34:33;;;;;;;10.40;8.23;;;;;;;;;;486196;28;1232;-74
2023/05/05 00:34:49;;;;;;;10.27;8.15;;;;;;;;;;488651;28;1268;-74
2023/05/05 00:35:14;;;;;;;10.02;8.00;;;;;;;;;;487606;28;914;-74
2023/05/05 00:35:35;;;;;;;10.48;7.85;;;;;;;;;;485407;28;1187;-74
2023/05/05 00:36:11;;;;;;;9.52;8.10;;;;;;;;;;483231;28;1314;-74
2023/05/05 00:36:27;;;;;;;8.45;7.65;;;;;;;;;;485376;28;1269;-74
2023/05/05 00:36:42;;;;;;;9.00;8.10;;;;;;;;;;482939;28;1244;-74
2023/05/05 00:37:37;;;;;;;8.25;7.45;;;;;;;;;;479572;28;1334;-74
2023/05/05 00:37:52;;;;;;;7.60;6.90;;;;;;;;;;486492;28;1320;-74
2023/05/05 00:38:08;;;;;;;7.83;7.03;;;;;;;;;;484962;28;1069;-74
2023/05/05 00:38:23;;;;;;;8.30;7.38;;;;;;;;;;489789;28;1131;-74
2023/05/05 00:38:39;;;;;;;9.63;7.53;;;;;;;;;;485138;28;1061;-74
2023/05/05 00:38:54;;;;;;;10.00;7.53;;;;;;;;;;485179;28;1199;-75
2023/05/05 00:39:32;;;;;;;8.60;7.33;;;;;;;;;;487424;28;1156;-73
2023/05/05 00:39:50;;;;;;;9.30;7.13;;;;;;;;;;480609;28;1215;-74
2023/05/05 00:40:12;;;;;;;8.15;7.10;;;;;;;;;;483412;28;1215;-74
2023/05/05 00:40:37;;;;;;;8.63;7.40;;;;;;;;;;479422;28;1213;-74
2023/05/05 00:40:52;;;;;;;8.02;7.13;;;;;;;;;;484063;28;1169;-74
2023/05/05 00:41:08;;;;;;;8.13;6.97;;;;;;;;;;484505;28;1117;-74
2023/05/05 00:41:26;;;;;;;8.30;6.95;;;;;;;;;;485313;28;1256;-74
2023/05/05 00:41:42;;;;;;;9.05;7.15;;;;;;;;;;481100;28;1138;-74
2023/05/05 00:41:58;;;;;;;8.30;6.90;;;;;;;;;;482556;28;1119;-74
2023/05/05 00:42:13;;;;;;;7.63;6.80;;;;;;;;;;485901;28;1233;-74
2023/05/05 00:42:58;;;;;;;8.32;7.18;;;;;;;;;;488385;28;1176;-74
2023/05/05 00:43:13;;;;;;;7.88;7.07;;;;;;;;;;488965;28;1146;-75
2023/05/05 00:43:28;;;;;;;7.88;7.10;;;;;;;;;;485693;28;1342;-74
2023/05/05 00:43:43;;;;;;;7.80;7.00;;;;;;;;;;483892;28;882;-74
2023/05/05 00:43:59;;;;;;;7.73;7.03;;;;;;;;;;483768;28;1423;-74
2023/05/05 00:44:14;;;;;;;7.80;7.00;;;;;;;;;;485512;28;1151;-74
2023/05/05 00:44:58;;;;;;;7.70;6.80;;;;;;;;;;486476;28;2004;-74
2023/05/05 00:45:17;;;;;;;8.27;7.20;;;;;;;;;;487138;28;1254;-74
2023/05/05 00:45:36;;;;;;;7.80;7.00;;;;;;;;;;487036;28;1302;-74
2023/05/05 00:46:01;;;;;;;7.45;6.75;;;;;;;;;;485309;28;1393;-74
2023/05/05 00:46:27;;;;;;;7.40;6.67;;;;;;;;;;482109;28;1512;-74
2023/05/05 00:46:42;;;;;;;7.07;6.38;;;;;;;;;;485517;28;1139;-74
2023/05/05 00:46:58;;;;;;;7.68;6.40;;;;;;;;;;484781;28;1259;-73
2023/05/05 00:47:17;;;;;;;7.77;6.60;;;;;;;;;;488564;28;1274;-74
2023/05/05 00:47:43;;;;;;;9.30;7.07;;;;;;;;;;491108;28;1279;-74
2023/05/05 00:48:09;;;;;;;7.32;6.53;;;;;;;;;;487647;28;1205;-74
2023/05/05 00:48:25;;;;;;;6.90;6.20;;;;;;;;;;486310;28;1116;-74
2023/05/05 00:48:41;;;;;;;6.93;6.23;;;;;;;;;;489321;28;1247;-74
2023/05/05 00:48:57;;;;;;;7.00;6.30;;;;;;;;;;485388;28;1214;-74
2023/05/05 00:49:12;;;;;;;7.00;6.20;;;;;;;;;;486419;28;1013;-74
2023/05/05 00:49:30;;;;;;;8.07;6.17;;;;;;;;;;484928;28;1112;-74
2023/05/05 00:49:46;;;;;;;7.25;6.38;;;;;;;;;;485381;28;1240;-74
2023/05/05 00:50:17;;;;;;;6.70;6.10;;;;;;;;;;485074;28;1346;-75
2023/05/05 00:50:33;;;;;;;7.28;6.32;;;;;;;;;;488736;28;1211;-73
2023/05/05 00:50:58;;;;;;;7.20;6.15;;;;;;;;;;483737;28;962;-75
2023/05/05 00:51:33;;;;;;;6.72;6.03;;;;;;;;;;484095;28;1252;-74
2023/05/05 00:51:49;;;;;;;6.55;5.95;;;;;;;;;;487724;28;1703;-74
2023/05/05 00:52:06;;;;;;;6.40;5.80;;;;;;;;;;487344;28;1102;-74
2023/05/05 00:52:21;;;;;;;6.55;5.70;;;;;;;;;;487803;28;1093;-74
2023/05/05 00:53:01;;;;;;;6.57;5.80;;;;;;;;;;487481;28;1147;-74
2023/05/05 00:53:16;;;;;;;5.97;5.38;;;;;;;;;;492011;28;1546;-74
2023/05/05 00:53:31;;;;;;;6.35;5.70;;;;;;;;;;486434;28;1158;-75
2023/05/05 00:53:47;;;;;;;6.97;5.83;;;;;;;;;;486652;28;1150;-74
2023/05/05 00:54:04;;;;;;;8.93;6.00;;;;;;;;;;486054;28;1140;-74
2023/05/05 00:54:19;;;;;;;8.80;6.07;;;;;;;;;;483185;28;1340;-73
2023/05/05 00:54:35;;;;;;;7.88;6.15;;;;;;;;;;487501;28;1062;-74
2023/05/05 00:55:02;;;;;;;7.67;6.03;;;;;;;;;;483171;28;1091;-75
2023/05/05 00:55:18;;;;;;;6.93;6.22;;;;;;;;;;481676;28;1259;-74
2023/05/05 00:55:35;;;;;;;6.80;6.10;;;;;;;;;;486685;28;1346;-74
2023/05/05 00:55:59;;;;;;;6.57;5.93;;;;;;;;;;485099;28;1214;-74
2023/05/05 00:56:18;;;;;;;6.60;5.88;;;;;;;;;;484870;28;1264;-74
2023/05/05 00:56:33;;;;;;;7.13;5.85;;;;;;;;;;484577;28;1125;-74
2023/05/05 00:56:53;;;;;;;7.05;5.75;;;;;;;;;;485833;28;1085;-74
2023/05/05 00:57:09;;;;;;;6.07;5.47;;;;;;;;;;486077;28;1089;-74
2023/05/05 00:57:34;;;;;;;5.97;5.20;;;;;;;;;;484048;28;1247;-74
2023/05/05 00:57:49;;;;;;;5.75;5.20;;;;;;;;;;489639;28;1391;-74
2023/05/05 00:58:08;;;;;;;5.63;5.00;;;;;;;;;;481849;28;1240;-74
2023/05/05 00:58:28;;;;;;;5.95;5.30;;;;;;;;;;481027;28;1157;-74
2023/05/05 00:58:43;;;;;;;5.70;5.20;;;;;;;;;;483296;28;1332;-74
2023/05/05 00:59:08;;;;;;;5.80;5.20;;;;;;;;;;485260;28;1383;-74
2023/05/05 00:59:23;;;;;;;6.13;5.50;;;;;;;;;;484359;28;1215;-75
2023/05/05 00:59:39;;;;;;;6.30;5.47;;;;;;;;;;488438;28;1060;-73
2023/05/05 00:59:58;;;;;;;5.90;5.30;;;;;;;;;;484302;28;1309;-74
2023/05/05 01:00:20;;;;;;;5.57;5.07;;;;;;;;;;483099;28;1200;-74
2023/05/05 01:00:35;;;;;;;5.78;5.10;;;;;;;;;;488510;28;1244;-74
2023/05/05 01:01:11;;;;;;;5.93;5.00;;;;;;;;;;482034;28;1162;-74
2023/05/05 01:01:26;;;;;;;5.57;5.07;;;;;;;;;;481792;28;1929;-74
2023/05/05 01:01:42;;;;;;;6.10;5.30;;;;;;;;;;476834;28;1219;-74
2023/05/05 01:01:57;;;;;;;5.70;5.10;;;;;;;;;;481141;28;1206;-74
2023/05/05 01:02:13;;;;;;;5.28;4.78;;;;;;;;;;483232;28;1225;-74
2023/05/05 01:02:29;;;;;;;5.60;4.90;;;;;;;;;;483790;28;1392;-74
2023/05/05 01:02:48;;;;;;;5.80;5.10;;;;;;;;;;484497;28;1248;-74
2023/05/05 01:03:04;;;;;;;5.28;4.75;;;;;;;;;;486802;28;1697;-74
2023/05/05 01:03:23;;;;;;;5.20;4.70;;;;;;;;;;485289;28;1141;-74
2023/05/05 01:03:40;;;;;;;5.95;4.80;;;;;;;;;;481482;28;1403;-74
2023/05/05 01:03:55;;;;;;;5.57;4.70;;;;;;;;;;481942;28;1116;-74
2023/05/05 01:04:11;;;;;;;5.50;4.65;;;;;;;;;;481177;28;1440;-74
2023/05/05 01:04:27;;;;;;;6.03;4.67;;;;;;;;;;480641;28;1950;-75
2023/05/05 01:04:42;;;;;;;6.95;4.70;;;;;;;;;;480854;28;1197;-74
2023/05/05 01:04:58;;;;;;;6.18;4.70;;;;;;;;;;483537;28;1262;-74
2023/05/05 01:05:14;;;;;;;5.20;4.73;;;;;;;;;;480379;28;1141;-74
2023/05/05 01:05:48;;;;;;;5.43;4.53;;;;;;;;;;481364;28;1312;-74
2023/05/05 01:06:09;;;;;;;5.13;4.22;;;;;;;;;;484608;28;1246;-74
2023/05/05 01:06:30;;;;;;;5.90;4.45;;;;;;;;;;482245;28;1102;-73
2023/05/05 01:06:55;;;;;;;5.10;4.57;;;;;;;;;;480669;28;1298;-74
2023/05/05 01:07:15;;;;;;;5.10;4.43;;;;;;;;;;486034;28;1152;-74
2023/05/05 01:07:37;;;;;;;5.28;4.32;;;;;;;;;;484713;28;1235;-74
2023/05/05 01:08:11;;;;;;;5.50;4.57;;;;;;;;;;487907;28;1776;-74
2023/05/05 01:08:41;;;;;;;5.20;4.75;;;;;;;;;;483891;28;1128;-74
2023/05/05 01:09:04;;;;;;;5.47;4.50;;;;;;;;;;486231;28;1297;-74
2023/05/05 01:09:31;;;;;;;5.35;4.25;;;;;;;;;;484440;28;1377;-74
2023/05/05 01:10:02;;;;;;;4.97;4.38;;;;;;;;;;489403;28;1255;-74
2023/05/05 01:10:33;;;;;;;5.07;4.20;;;;;;;;;;490270;28;1211;-74
2023/05/05 01:10:53;;;;;;;4.80;4.40;;;;;;;;;;487054;28;1183;-74
2023/05/05 01:11:32;;;;;;;4.90;4.50;;;;;;;;;;487351;28;1239;-74
2023/05/05 01:11:50;;;;;;;5.18;4.20;;;;;;;;;;478815;28;1693;-74
2023/05/05 01:12:34;;;;;;;4.97;4.10;;;;;;;;;;486656;28;1456;-74
2023/05/05 01:13:08;;;;;;;6.15;4.30;;;;;;;;;;481424;28;1209;-74
2023/05/05 01:13:24;;;;;;;4.47;4.07;;;;;;;;;;482544;28;1224;-73
2023/05/05 01:14:06;;;;;;;4.60;3.80;;;;;;;;;;486340;28;1019;-74
2023/05/05 01:14:34;;;;;;;4.53;4.13;;;;;;;;;;482342;28;1145;-74
2023/05/05 01:15:21;;;;;;;4.93;4.35;;;;;;;;;;482056;28;1319;-75
2023/05/05 01:15:46;;;;;;;5.93;4.28;;;;;;;;;;485653;28;1299;-74
2023/05/05 01:16:30;;;;;;;;;;;;;;;;;;;;;
2023/05/05 01:17:06;;;;;;;5.18;4.15;;;;;;;;;;487792;28;1094;-74
2023/05/05 01:17:30;;;;;;;4.40;4.00;;;;;;;;;;478398;28;1273;-74
2023/05/05 01:17:54;;;;;;;4.30;3.80;;;;;;;;;;491381;28;1848;-73
2023/05/05 01:18:28;;;;;;;4.95;4.30;;;;;;;;;;488766;28;1637;-74
2023/05/05 01:18:52;;;;;;;4.45;4.05;;;;;;;;;;484510;28;1177;-74
2023/05/05 01:19:26;;;;;;;4.30;3.90;;;;;;;;;;484422;28;1626;-74
2023/05/05 01:19:44;;;;;;;6.10;4.30;;;;;;;;;;484728;28;1106;-74
2023/05/05 01:20:22;;;;;;;5.85;4.43;;;;;;;;;;484112;28;2633;-74
2023/05/05 01:21:05;;;;;;;5.07;4.07;;;;;;;;;;490958;28;1128;-75
2023/05/05 01:21:31;;;;;;;4.68;4.18;;;;;;;;;;484586;28;1519;-74
2023/05/05 01:21:55;;;;;;;5.32;4.20;;;;;;;;;;486771;28;1430;-75
2023/05/05 01:22:14;;;;;;;4.85;4.00;;;;;;;;;;486664;28;1471;-74
2023/05/05 01:22:47;;;;;;;5.10;4.07;;;;;;;;;;487170;28;1319;-73
2023/05/05 01:23:05;;;;;;;4.23;3.70;;;;;;;;;;488819;28;1148;-74
2023/05/05 01:23:39;;;;;;;4.70;3.80;;;;;;;;;;493556;28;1143;-74
2023/05/05 01:23:54;;;;;;;4.20;3.80;;;;;;;;;;490760;28;1111;-74
2023/05/05 01:24:25;;;;;;;4.20;3.80;;;;;;;;;;491147;28;998;-74
2023/05/05 01:24:40;;;;;;;4.10;3.70;;;;;;;;;;490292;28;1963;-74
2023/05/05 01:25:02;;;;;;;4.37;3.60;;;;;;;;;;485951;28;1332;-74
2023/05/05 01:25:18;;;;;;;5.38;3.80;;;;;;;;;;482775;28;1342;-74
2023/05/05 01:26:44;;;;;;;4.72;3.78;;;;;;;;;;485300;28;1154;-74
2023/05/05 01:27:26;;;;;;;5.18;3.85;;;;;;;;;;477351;28;1109;-74
2023/05/05 01:28:13;;;;;;;5.15;3.78;;;;;;;;;;481645;28;1079;-74
2023/05/05 01:28:58;;;;;;;4.28;3.88;;;;;;;;;;478479;28;1079;-74
2023/05/05 01:29:37;;;;;;;5.40;3.88;;;;;;;;;;477110;28;1522;-74
2023/05/05 01:29:55;;;;;;;5.57;4.15;;;;;;;;;;478124;28;1175;-74
2023/05/05 01:30:29;;;;;;;4.65;4.07;;;;;;;;;;476538;29;1160;-74
2023/05/05 01:30:45;;;;;;;8.05;4.10;;;;;;;;;;478321;28;1254;-74
2023/05/05 01:31:31;;;;;;;4.27;3.80;;;;;;;;;;476839;29;1090;-74
2023/05/05 01:31:59;;;;;;;5.00;3.72;;;;;;;;;;477583;28;1242;-74
2023/05/05 01:32:15;;;;;;;4.45;3.70;;;;;;;;;;478296;28;1149;-74
2023/05/05 01:32:32;;;;;;;4.53;3.72;;;;;;;;;;477241;28;1298;-74
2023/05/05 01:32:50;;;;;;;4.20;3.80;;;;;;;;;;476748;28;1205;-74
2023/05/05 01:33:07;;;;;;;4.25;3.85;;;;;;;;;;477299;28;1824;-74
2023/05/05 01:33:25;;;;;;;4.45;4.05;;;;;;;;;;478509;28;1186;-74
2023/05/05 01:33:46;;;;;;;4.68;4.28;;;;;;;;;;480291;29;1286;-74
2023/05/05 01:34:07;;;;;;;4.53;4.13;;;;;;;;;;479513;28;1731;-74
2023/05/05 01:34:43;;;;;;;4.22;3.83;;;;;;;;;;477101;28;1433;-74
2023/05/05 01:34:58;;;;;;;4.10;3.78;;;;;;;;;;475629;28;1330;-74
2023/05/05 01:35:34;;;;;;;4.50;4.10;;;;;;;;;;472780;29;1175;-74
2023/05/05 01:35:52;;;;;;;5.07;4.25;;;;;;;;;;475023;29;1151;-74
2023/05/05 01:36:10;;;;;;;6.43;4.45;;;;;;;;;;475709;29;1127;-74
2023/05/05 01:36:37;;;;;;;5.00;4.50;;;;;;;;;;473550;29;1404;-74
2023/05/05 01:37:20;;;;;;;5.13;4.35;;;;;;;;;;473695;29;1186;-74
2023/05/05 01:38:07;;;;;;;4.93;4.43;;;;;;;;;;476959;29;1124;-74
2023/05/05 01:38:31;;;;;;;5.43;4.32;;;;;;;;;;482956;28;1211;-74
2023/05/05 01:38:50;;;;;;;5.47;4.32;;;;;;;;;;477801;29;1229;-74
2023/05/05 01:39:08;;;;;;;4.80;4.30;;;;;;;;;;480487;29;1233;-74
2023/05/05 01:39:39;;;;;;;4.60;4.20;;;;;;;;;;475924;29;1273;-73
2023/05/05 01:40:03;;;;;;;4.75;4.35;;;;;;;;;;474930;29;1102;-75
2023/05/05 01:40:24;;;;;;;4.95;4.43;;;;;;;;;;476431;29;1185;-73
2023/05/05 01:40:47;;;;;;;5.80;4.70;;;;;;;;;;482248;28;1127;-75
2023/05/05 01:41:06;;;;;;;4.95;4.50;;;;;;;;;;480300;28;1246;-74
2023/05/05 01:41:27;;;;;;;4.80;4.40;;;;;;;;;;479271;28;1187;-74
2023/05/05 01:41:47;;;;;;;5.35;4.50;;;;;;;;;;482143;28;1221;-73
2023/05/05 01:42:14;;;;;;;6.57;4.85;;;;;;;;;;484182;28;1094;-74
2023/05/05 01:42:33;;;;;;;4.70;4.20;;;;;;;;;;477620;28;1146;-74
2023/05/05 01:42:50;;;;;;;4.80;4.30;;;;;;;;;;473915;29;1374;-74
2023/05/05 01:43:11;;;;;;;4.85;4.40;;;;;;;;;;476080;29;1191;-74
2023/05/05 01:44:08;;;;;;;5.15;4.38;;;;;;;;;;474667;29;1642;-74
2023/05/05 01:44:40;;;;;;;5.05;4.50;;;;;;;;;;475274;29;1345;-75
2023/05/05 01:44:56;;;;;;;4.93;4.43;;;;;;;;;;477754;29;1274;-74
2023/05/05 01:45:26;;;;;;;;;;;;;;;;;;;;;
2023/05/05 01:45:42;;;;;;;5.35;4.65;;;;;;;;;;477261;28;1008;-74
2023/05/05 01:45:58;;;;;;;4.78;4.28;;;;;;;;;;477199;28;1304;-75
2023/05/05 01:46:21;;;;;;;4.45;4.05;;;;;;;;;;475035;28;1278;-74
2023/05/05 01:46:39;;;;;;;4.88;4.07;;;;;;;;;;477188;29;1065;-74
2023/05/05 01:46:54;;;;;;;6.07;4.18;;;;;;;;;;476529;29;1164;-74
2023/05/05 01:47:14;;;;;;;6.07;4.30;;;;;;;;;;473271;29;1355;-74
2023/05/05 01:47:30;;;;;;;4.78;4.32;;;;;;;;;;474501;29;1135;-74
2023/05/05 01:47:55;;;;;;;4.80;4.35;;;;;;;;;;473460;28;1132;-74
2023/05/05 01:48:15;;;;;;;4.40;4.00;;;;;;;;;;476834;29;1565;-74
2023/05/05 01:48:35;;;;;;;4.63;4.22;;;;;;;;;;476246;28;1269;-74
2023/05/05 01:49:00;;;;;;;5.28;4.45;;;;;;;;;;475271;29;1124;-74
2023/05/05 01:49:16;;;;;;;7.05;4.38;;;;;;;;;;474456;29;1218;-75
2023/05/05 01:49:33;;;;;;;6.35;4.10;;;;;;;;;;474997;29;1289;-74
2023/05/05 01:49:49;;;;;;;4.47;4.07;;;;;;;;;;473985;29;1195;-74
2023/05/05 01:50:56;;;;;;;4.35;3.95;;;;;;;;;;477639;28;1136;-73
2023/05/05 01:51:12;;;;;;;4.10;3.80;;;;;;;;;;478570;28;1267;-74
2023/05/05 01:51:37;;;;;;;4.88;3.85;;;;;;;;;;476137;28;1215;-74
2023/05/05 01:51:54;;;;;;;4.82;4.20;;;;;;;;;;479185;28;1323;-74
2023/05/05 01:52:09;;;;;;;4.55;4.15;;;;;;;;;;481083;29;1187;-74
2023/05/05 01:52:26;;;;;;;4.68;4.18;;;;;;;;;;474492;29;1353;-73
2023/05/05 01:52:45;;;;;;;4.53;4.10;;;;;;;;;;473667;29;1136;-74
2023/05/05 01:53:22;;;;;;;4.55;4.15;;;;;;;;;;471702;29;1137;-73
2023/05/05 01:53:48;;;;;;;;;;;;;;;;;;;;;
2023/05/05 01:54:16;;;;;;;4.57;4.18;;;;;;;;;;475633;28;865;-74
2023/05/05 01:55:17;;;;;;;4.60;4.10;;;;;;;;;;474869;29;2054;-74
2023/05/05 01:55:39;;;;;;;4.30;3.90;;;;;;;;;;471957;29;1432;-74
2023/05/05 01:55:58;;;;;;;4.43;4.00;;;;;;;;;;472105;29;1358;-74
2023/05/05 01:56:15;;;;;;;4.55;4.15;;;;;;;;;;479959;29;1214;-74
2023/05/05 01:56:33;;;;;;;4.40;3.92;;;;;;;;;;483847;29;1115;-74
2023/05/05 01:56:52;;;;;;;4.38;3.97;;;;;;;;;;476907;29;1131;-73
2023/05/05 01:57:20;;;;;;;4.40;4.00;;;;;;;;;;479714;29;1188;-74
2023/05/05 01:57:36;;;;;;;4.35;4.00;;;;;;;;;;484754;29;1176;-74
2023/05/05 01:57:52;;;;;;;4.38;3.97;;;;;;;;;;477961;28;1319;-74
2023/05/05 01:58:16;;;;;;;4.53;4.13;;;;;;;;;;479280;29;1180;-74
2023/05/05 01:58:32;;;;;;;4.50;4.10;;;;;;;;;;482276;29;1248;-75
2023/05/05 01:58:51;;;;;;;4.43;4.03;;;;;;;;;;480878;29;1233;-74
2023/05/05 01:59:10;;;;;;;4.35;3.85;;;;;;;;;;481713;29;1282;-74
2023/05/05 01:59:47;;;;;;;4.53;4.10;;;;;;;;;;481023;28;1178;-74
2023/05/05 02:00:03;;;;;;;5.25;4.40;;;;;;;;;;482636;28;1353;-75
2023/05/05 02:00:30;;;;;;;;;;;;;;;;;;;;;
2023/05/05 02:00:46;;;;;;;4.20;3.90;;;;;;;;;;482270;29;995;-75
2023/05/05 02:01:02;;;;;;;4.50;4.10;;;;;;;;;;480818;29;1377;-74
2023/05/05 02:01:21;;;;;;;4.80;4.28;;;;;;;;;;480589;28;870;-75
2023/05/05 02:01:38;;;;;;;4.70;4.10;;;;;;;;;;480319;28;1717;-74
2023/05/05 02:01:55;;;;;;;5.07;4.18;;;;;;;;;;478962;28;1291;-75
2023/05/05 02:02:16;;;;;;;5.07;4.47;;;;;;;;;;481757;28;1473;-74
2023/05/05 02:02:33;;;;;;;6.03;4.53;;;;;;;;;;481394;28;1196;-75
2023/05/05 02:03:45;;;;;;;5.93;4.55;;;;;;;;;;482337;28;1261;-75
2023/05/05 02:03:57;;;;;;;5.82;4.32;;;;;;;;;;479723;28;1348;-74
2023/05/05 02:04:13;;;;;;;5.20;4.40;;;;;;;;;;485898;28;1382;-76
2023/05/05 02:04:33;;;;;;;4.78;4.38;;;;;;;;;;490926;28;2013;-75
2023/05/05 02:04:58;;;;;;;5.10;4.60;;;;;;;;;;493582;28;1330;-75
2023/05/05 02:05:15;;;;;;;5.00;4.50;;;;;;;;;;490174;28;1140;-74
2023/05/05 02:05:38;;;;;;;5.10;4.53;;;;;;;;;;487883;28;1453;-74
2023/05/05 02:06:55;;;;;;;;;;;;;;;;;;;;;
2023/05/05 02:07:30;;;;;;;5.78;4.53;;;;;;;;;;480501;28;1131;-75
2023/05/05 02:07:46;;;;;;;4.80;4.32;;;;;;;;;;484688;28;1605;-75
2023/05/05 02:08:20;;;;;;;4.82;4.32;;;;;;;;;;485562;28;1309;-75
2023/05/05 02:08:39;;;;;;;5.80;4.72;;;;;;;;;;485984;28;1382;-75
2023/05/05 02:08:57;;;;;;;5.53;4.50;;;;;;;;;;482341;28;1131;-74
2023/05/05 02:09:13;;;;;;;5.18;4.30;;;;;;;;;;484358;28;1342;-75
2023/05/05 02:09:29;;;;;;;5.05;4.38;;;;;;;;;;480685;28;1343;-74
2023/05/05 02:09:45;;;;;;;5.10;4.60;;;;;;;;;;483054;28;1277;-75
2023/05/05 02:10:04;;;;;;;4.97;4.57;;;;;;;;;;482333;28;1130;-74
2023/05/05 02:10:20;;;;;;;6.25;4.43;;;;;;;;;;477508;28;1144;-74
2023/05/05 02:10:37;;;;;;;6.25;4.45;;;;;;;;;;478996;29;1227;-75
2023/05/05 02:10:56;;;;;;;5.10;4.60;;;;;;;;;;483564;28;1075;-75
2023/05/05 02:11:58;;;;;;;5.65;4.57;;;;;;;;;;483391;28;1280;-75
2023/05/05 02:12:25;;;;;;;5.07;4.43;;;;;;;;;;479557;28;1191;-74
2023/05/05 02:12:41;;;;;;;5.40;4.68;;;;;;;;;;478942;28;1426;-74
2023/05/05 02:13:38;;;;;;;5.65;4.70;;;;;;;;;;481695;28;1533;-75
2023/05/05 02:13:54;;;;;;;4.93;4.40;;;;;;;;;;478773;28;1369;-74
2023/05/05 02:14:10;;;;;;;5.55;4.40;;;;;;;;;;479294;29;1203;-74
2023/05/05 02:14:27;;;;;;;4.63;4.18;;;;;;;;;;477245;29;1132;-74
2023/05/05 02:14:45;;;;;;;5.18;4.28;;;;;;;;;;479194;29;1343;-74
2023/05/05 02:15:01;;;;;;;5.50;4.35;;;;;;;;;;475488;29;1575;-75
2023/05/05 02:15:37;;;;;;;4.80;4.40;;;;;;;;;;475848;29;1333;-75
2023/05/05 02:15:53;;;;;;;4.05;3.65;;;;;;;;;;470516;29;1328;-75
2023/05/05 02:16:10;;;;;;;3.92;3.63;;;;;;;;;;473613;29;1201;-75
2023/05/05 02:16:32;;;;;;;4.38;3.97;;;;;;;;;;474467;29;1076;-74
2023/05/05 02:16:48;;;;;;;4.78;4.20;;;;;;;;;;479933;29;1200;-74
2023/05/05 02:17:23;;;;;;;4.55;4.10;;;;;;;;;;475522;29;1100;-75
2023/05/05 02:17:42;;;;;;;4.55;4.15;;;;;;;;;;472636;29;1440;-74
2023/05/05 02:18:01;;;;;;;4.80;4.25;;;;;;;;;;475304;29;1164;-75
2023/05/05 02:18:37;;;;;;;4.60;4.10;;;;;;;;;;471474;29;1335;-74